createdAt,value
2018-09-18T00:02:08.918Z,57.90
2018-09-18T00:04:39.230Z,57.64
2018-09-18T00:07:09.268Z,58.35
2018-09-18T00:09:39.592Z,58.13
2018-09-18T00:12:09.936Z,58.20
2018-09-18T00:14:40.374Z,58.31
2018-09-18T00:17:10.666Z,58.67
2018-09-18T00:19:41.479Z,58.76
2018-09-18T00:22:11.885Z,59.27
2018-09-18T00:24:42.328Z,59.61
2018-09-18T00:27:12.701Z,59.01
2018-09-18T00:29:43.056Z,59.76
2018-09-18T00:32:13.572Z,59.79
2018-09-18T00:34:43.512Z,59.63
2018-09-18T00:37:14.042Z,60.11
2018-09-18T00:39:44.511Z,60.52
2018-09-18T00:42:14.988Z,59.57
2018-09-18T00:44:45.456Z,60.13
2018-09-18T00:47:17.171Z,59.75
2018-09-18T00:49:47.664Z,59.45
2018-09-18T00:52:18.008Z,60.32
2018-09-18T00:54:48.450Z,60.51
2018-09-18T00:57:18.800Z,59.91
2018-09-18T00:59:48.932Z,61.06
2018-09-18T01:02:18.915Z,60.94
2018-09-18T01:04:49.349Z,60.33
2018-09-18T01:07:19.704Z,60.77
2018-09-18T01:09:50.567Z,60.84
2018-09-18T01:12:21.308Z,60.16
2018-09-18T01:14:51.783Z,60.11
2018-09-18T01:17:21.995Z,60.04
2018-09-18T01:19:52.153Z,60.11
2018-09-18T01:22:22.823Z,60.62
2018-09-18T01:24:53.112Z,60.04
2018-09-18T01:27:23.620Z,60.50
2018-09-18T01:29:54.005Z,60.56
2018-09-18T01:32:24.558Z,60.94
2018-09-18T01:34:55.037Z,59.87
2018-09-18T01:37:25.499Z,60.67
2018-09-18T01:39:55.973Z,60.35
2018-09-18T01:42:26.699Z,59.81
2018-09-18T01:44:57.193Z,60.31
2018-09-18T01:47:27.573Z,60.34
2018-09-18T01:49:58.381Z,59.50
2018-09-18T01:52:28.947Z,60.26
2018-09-18T01:54:59.310Z,59.36
2018-09-18T01:57:29.869Z,59.14
2018-09-18T02:00:00.260Z,59.16
2018-09-18T02:02:30.605Z,59.17
2018-09-18T02:05:01.105Z,59.69
2018-09-18T02:07:31.693Z,59.09
2018-09-18T02:10:02.031Z,58.76
2018-09-18T02:12:32.502Z,58.55
2018-09-18T02:15:02.750Z,58.63
2018-09-18T02:17:32.965Z,58.66
2018-09-18T02:20:03.745Z,58.49
2018-09-18T02:22:34.548Z,57.96
2018-09-18T02:25:04.792Z,58.63
2018-09-18T02:27:34.865Z,58.72
2018-09-18T02:30:05.004Z,58.00
2018-09-18T02:32:35.646Z,57.79
2018-09-18T02:35:06.448Z,58.42
2018-09-18T02:37:36.917Z,57.59
2018-09-18T02:40:07.864Z,58.37
2018-09-18T02:42:38.181Z,58.25
2018-09-18T02:45:08.802Z,58.32
2018-09-18T02:47:39.356Z,57.74
2018-09-18T02:50:09.811Z,58.00
2018-09-18T02:52:40.210Z,57.84
2018-09-18T02:55:10.888Z,57.66
2018-09-18T02:57:41.464Z,57.09
2018-09-18T03:00:12.303Z,57.04
2018-09-18T03:02:42.968Z,56.87
2018-09-18T03:05:20.782Z,56.94
2018-09-18T03:07:51.237Z,57.55
2018-09-18T03:10:21.645Z,57.28
2018-09-18T03:12:52.102Z,56.89
2018-09-18T03:15:22.830Z,56.89
2018-09-18T03:17:53.299Z,57.58
2018-09-18T03:20:23.719Z,56.62
2018-09-18T03:22:54.457Z,56.51
2018-09-18T03:25:24.873Z,56.75
2018-09-18T03:27:55.238Z,56.18
2018-09-18T03:30:25.733Z,56.75
2018-09-18T03:32:56.543Z,56.41
2018-09-18T03:35:27.209Z,55.97
2018-09-18T03:37:57.574Z,56.51
2018-09-18T03:40:27.809Z,56.14
2018-09-18T03:42:58.149Z,55.70
2018-09-18T03:45:28.678Z,55.66
2018-09-18T03:47:59.088Z,55.42
2018-09-18T03:50:29.730Z,55.54
2018-09-18T03:53:00.134Z,56.10
2018-09-18T03:55:30.557Z,55.93
2018-09-18T03:58:00.915Z,56.05
2018-09-18T04:00:31.323Z,55.87
2018-09-18T04:03:01.677Z,55.84
2018-09-18T04:05:32.039Z,56.13
2018-09-18T04:08:02.679Z,55.79
2018-09-18T04:10:33.133Z,56.09
2018-09-18T04:13:03.489Z,55.12
2018-09-18T04:15:33.718Z,55.21
2018-09-18T04:18:04.147Z,55.68
2018-09-18T04:20:34.427Z,55.04
2018-09-18T04:23:04.871Z,55.18
2018-09-18T04:25:34.927Z,55.51
2018-09-18T04:28:05.150Z,55.68
2018-09-18T04:30:35.201Z,55.38
2018-09-18T04:33:05.637Z,55.02
2018-09-18T04:35:35.995Z,55.41
2018-09-18T04:38:06.569Z,55.27
2018-09-18T04:40:36.713Z,55.98
2018-09-18T04:43:07.021Z,55.61
2018-09-18T04:45:37.639Z,55.32
2018-09-18T04:48:08.294Z,55.66
2018-09-18T04:50:38.175Z,55.17
2018-09-18T04:53:08.411Z,55.38
2018-09-18T04:55:38.647Z,55.84
2018-09-18T04:58:08.472Z,55.34
2018-09-18T05:00:38.740Z,55.66
2018-09-18T05:03:09.245Z,55.68
2018-09-18T05:05:39.192Z,56.03
2018-09-18T05:08:09.585Z,55.38
2018-09-18T05:10:39.456Z,55.35
2018-09-18T05:13:09.445Z,55.98
2018-09-18T05:15:39.290Z,55.96
2018-09-18T05:18:09.159Z,55.12
2018-09-18T05:20:39.066Z,55.69
2018-09-18T05:23:08.819Z,55.45
2018-09-18T05:25:38.962Z,55.14
2018-09-18T05:28:08.907Z,54.99
2018-09-18T05:30:38.674Z,55.16
2018-09-18T05:33:08.462Z,55.03
2018-09-18T05:35:39.465Z,55.18
2018-09-18T05:38:09.352Z,55.54
2018-09-18T05:40:39.335Z,55.55
2018-09-18T05:43:09.863Z,55.56
2018-09-18T05:45:39.821Z,55.35
2018-09-18T05:48:12.179Z,55.46
2018-09-18T05:50:43.093Z,54.24
2018-09-18T05:53:13.669Z,54.24
2018-09-18T05:55:43.576Z,54.54
2018-09-18T05:58:13.391Z,53.90
2018-09-18T06:00:43.215Z,54.12
2018-09-18T06:03:13.102Z,53.75
2018-09-18T06:05:43.034Z,53.75
2018-09-18T06:08:12.865Z,53.00
2018-09-18T06:10:43.020Z,52.95
2018-09-18T06:13:12.849Z,53.13
2018-09-18T06:15:42.715Z,52.47
2018-09-18T06:18:12.665Z,52.65
2018-09-18T06:20:42.859Z,52.74
2018-09-18T06:23:12.779Z,53.05
2018-09-18T06:25:42.646Z,52.60
2018-09-18T06:28:12.752Z,52.11
2018-09-18T06:30:42.738Z,51.25
2018-09-18T06:33:12.797Z,51.35
2018-09-18T06:35:42.688Z,50.76
2018-09-18T06:38:13.024Z,51.35
2018-09-18T06:40:43.467Z,51.06
2018-09-18T06:43:13.338Z,50.17
2018-09-18T06:45:43.320Z,49.86
2018-09-18T06:48:13.355Z,50.36
2018-09-18T06:50:43.285Z,49.96
2018-09-18T06:53:13.149Z,50.38
2018-09-18T06:55:43.297Z,49.77
2018-09-18T06:58:13.143Z,49.95
2018-09-18T07:00:43.041Z,50.22
2018-09-18T07:03:12.896Z,49.41
2018-09-18T07:05:42.986Z,50.01
2018-09-18T07:08:13.137Z,49.21
2018-09-18T07:10:43.154Z,49.21
2018-09-18T07:13:13.024Z,49.22
2018-09-18T07:15:43.110Z,49.15
2018-09-18T07:18:13.023Z,49.78
2018-09-18T07:20:43.028Z,49.50
2018-09-18T07:23:13.108Z,49.31
2018-09-18T07:25:43.096Z,49.47
2018-09-18T07:28:13.953Z,48.62
2018-09-18T07:30:44.147Z,48.73
2018-09-18T07:33:14.301Z,49.35
2018-09-18T07:35:44.168Z,49.00
2018-09-18T07:38:14.039Z,48.96
2018-09-18T07:40:44.289Z,49.20
2018-09-18T07:43:13.998Z,48.39
2018-09-18T07:45:43.781Z,48.04
2018-09-18T07:48:14.196Z,48.36
2018-09-18T07:50:44.254Z,48.27
2018-09-18T07:53:14.216Z,47.33
2018-09-18T07:55:44.093Z,48.05
2018-09-18T07:58:13.973Z,48.11
2018-09-18T08:00:43.916Z,47.21
2018-09-18T08:03:13.701Z,47.20
2018-09-18T08:05:43.955Z,48.04
2018-09-18T08:08:13.781Z,46.89
2018-09-18T08:10:43.762Z,46.63
2018-09-18T08:13:13.818Z,46.16
2018-09-18T08:15:44.212Z,47.12
2018-09-18T08:18:14.340Z,45.75
2018-09-18T08:20:44.586Z,46.12
2018-09-18T08:23:14.868Z,46.98
2018-09-18T08:25:45.078Z,46.65
2018-09-18T08:28:14.917Z,46.06
2018-09-18T08:30:44.887Z,45.89
2018-09-18T08:33:14.821Z,46.51
2018-09-18T08:35:44.590Z,45.30
2018-09-18T08:38:14.448Z,45.79
2018-09-18T08:40:44.287Z,45.37
2018-09-18T08:43:14.668Z,45.44
2018-09-18T08:45:45.058Z,44.59
2018-09-18T08:48:15.317Z,45.24
2018-09-18T08:50:45.185Z,45.23
2018-09-18T08:53:15.014Z,44.46
2018-09-18T08:55:45.013Z,45.02
2018-09-18T08:58:15.073Z,44.37
2018-09-18T09:00:45.339Z,44.91
2018-09-18T09:03:15.561Z,44.43
2018-09-18T09:05:45.800Z,44.47
2018-09-18T09:08:16.017Z,44.44
2018-09-18T09:10:45.981Z,44.51
2018-09-18T09:13:16.291Z,43.81
2018-09-18T09:15:46.155Z,44.20
2018-09-18T09:18:17.590Z,43.83
2018-09-18T09:20:47.433Z,44.27
2018-09-18T09:23:17.262Z,43.76
2018-09-18T09:25:47.326Z,44.44
2018-09-18T09:28:17.547Z,44.24
2018-09-18T09:30:47.628Z,43.43
2018-09-18T09:33:18.000Z,43.60
2018-09-18T09:35:48.102Z,43.34
2018-09-18T09:38:18.223Z,43.62
2018-09-18T09:40:48.203Z,44.41
2018-09-18T09:43:18.158Z,44.10
2018-09-18T09:45:48.317Z,43.34
2018-09-18T09:48:18.296Z,43.58
2018-09-18T09:50:48.284Z,44.25
2018-09-18T09:53:18.220Z,44.42
2018-09-18T09:55:48.053Z,43.68
2018-09-18T09:58:18.046Z,44.38
2018-09-18T10:00:53.236Z,44.12
2018-09-18T10:03:23.489Z,43.69
2018-09-18T10:05:53.510Z,44.25
2018-09-18T10:08:24.044Z,44.61
2018-09-18T10:10:53.966Z,44.23
2018-09-18T10:13:23.954Z,44.69
2018-09-18T10:15:53.936Z,44.38
2018-09-18T10:18:23.895Z,43.67
2018-09-18T10:20:54.022Z,44.40
2018-09-18T10:23:24.146Z,44.34
2018-09-18T10:25:54.290Z,44.36
2018-09-18T10:28:24.342Z,44.60
2018-09-18T10:30:54.711Z,43.71
2018-09-18T10:33:24.807Z,43.20
2018-09-18T10:35:54.659Z,43.63
2018-09-18T10:38:24.724Z,43.61
2018-09-18T10:40:54.689Z,44.78
2018-09-18T10:43:24.584Z,44.51
2018-09-18T10:45:54.357Z,44.55
2018-09-18T10:48:24.283Z,44.23
2018-09-18T10:50:54.352Z,44.34
2018-09-18T10:53:24.374Z,45.24
2018-09-18T10:55:54.263Z,44.73
2018-09-18T10:58:24.250Z,44.41
2018-09-18T11:00:54.245Z,45.59
2018-09-18T11:03:24.133Z,46.49
2018-09-18T11:05:54.384Z,47.74
2018-09-18T11:08:24.415Z,46.76
2018-09-18T11:10:54.441Z,47.04
2018-09-18T11:13:24.305Z,46.68
2018-09-18T11:15:54.347Z,45.81
2018-09-18T11:18:24.398Z,45.89
2018-09-18T11:20:54.521Z,46.16
2018-09-18T11:23:24.847Z,45.65
2018-09-18T11:25:55.113Z,45.27
2018-09-18T11:28:25.160Z,44.72
2018-09-18T11:30:55.095Z,43.97
2018-09-18T11:33:25.069Z,42.70
2018-09-18T11:35:55.343Z,42.65
2018-09-18T11:38:25.860Z,42.47
2018-09-18T11:40:55.809Z,42.49
2018-09-18T11:43:25.745Z,41.59
2018-09-18T11:45:55.944Z,42.27
2018-09-18T11:48:25.630Z,41.66
2018-09-18T11:50:55.511Z,42.07
2018-09-18T11:53:25.418Z,41.95
2018-09-18T11:55:55.529Z,40.54
2018-09-18T11:58:25.562Z,39.93
2018-09-18T12:00:55.597Z,40.96
2018-09-18T12:03:25.504Z,39.59
2018-09-18T12:05:55.821Z,39.13
2018-09-18T12:08:25.780Z,40.05
2018-09-18T12:10:55.698Z,40.15
2018-09-18T12:13:25.794Z,40.40
2018-09-18T12:15:55.699Z,39.34
2018-09-18T12:18:25.576Z,38.98
2018-09-18T12:20:55.390Z,37.41
2018-09-18T12:23:25.856Z,37.09
2018-09-18T12:25:55.803Z,36.17
2018-09-18T12:28:25.774Z,35.98
2018-09-18T12:30:55.704Z,36.82
2018-09-18T12:33:25.696Z,35.73
2018-09-18T12:35:55.844Z,36.15
2018-09-18T12:38:25.914Z,36.41
2018-09-18T12:40:55.999Z,35.55
2018-09-18T12:43:26.006Z,34.75
2018-09-18T12:45:56.112Z,35.46
2018-09-18T12:48:25.995Z,34.98
2018-09-18T12:50:56.106Z,34.62
2018-09-18T12:53:25.862Z,34.43
2018-09-18T12:55:55.860Z,34.11
2018-09-18T12:58:26.604Z,33.76
2018-09-18T13:00:56.642Z,34.16
2018-09-18T13:03:26.835Z,34.19
2018-09-18T13:05:56.950Z,33.31
2018-09-18T13:08:26.964Z,33.72
2018-09-18T13:10:56.886Z,33.57
2018-09-18T13:13:26.774Z,33.14
2018-09-18T13:15:56.737Z,33.39
2018-09-18T13:18:26.622Z,33.40
2018-09-18T13:20:56.520Z,32.61
2018-09-18T13:23:26.517Z,32.95
2018-09-18T13:25:56.372Z,33.32
2018-09-18T13:28:26.400Z,32.50
2018-09-18T13:30:56.757Z,32.97
2018-09-18T13:33:26.663Z,31.67
2018-09-18T13:35:56.547Z,32.11
2018-09-18T13:38:26.607Z,31.76
2018-09-18T13:40:56.733Z,30.49
2018-09-18T13:43:26.839Z,30.42
2018-09-18T13:45:56.815Z,30.17
2018-09-18T13:48:26.741Z,30.63
2018-09-18T13:50:56.741Z,29.90
2018-09-18T13:53:26.668Z,30.20
2018-09-18T13:55:56.622Z,29.72
2018-09-18T13:58:26.547Z,30.23
2018-09-18T14:00:57.112Z,29.57
2018-09-18T14:03:27.053Z,29.09
2018-09-18T14:05:57.054Z,29.56
2018-09-18T14:08:27.127Z,29.45
2018-09-18T14:10:57.028Z,29.59
2018-09-18T14:13:27.107Z,28.42
2018-09-18T14:15:57.037Z,28.52
2018-09-18T14:18:27.377Z,29.35
2018-09-18T14:20:57.482Z,28.58
2018-09-18T14:23:27.374Z,28.95
2018-09-18T14:25:57.265Z,28.23
2018-09-18T14:28:27.408Z,28.31
2018-09-18T14:30:57.367Z,28.50
2018-09-18T14:33:27.389Z,29.38
2018-09-18T14:35:58.003Z,29.47
2018-09-18T14:38:27.962Z,30.11
2018-09-18T14:40:57.871Z,30.64
2018-09-18T14:43:27.768Z,30.67
2018-09-18T14:45:57.840Z,32.02
2018-09-18T14:48:27.734Z,32.19
2018-09-18T14:50:57.842Z,32.32
2018-09-18T14:53:27.585Z,33.39
2018-09-18T14:55:57.468Z,33.05
2018-09-18T14:58:27.512Z,34.93
2018-09-18T15:00:57.483Z,34.63
2018-09-18T15:03:27.339Z,34.98
2018-09-18T15:05:57.414Z,35.46
2018-09-18T15:08:27.770Z,35.21
2018-09-18T15:10:58.171Z,35.46
2018-09-18T15:13:28.243Z,35.55
2018-09-18T15:15:58.313Z,35.24
2018-09-18T15:18:28.517Z,35.30
2018-09-18T15:20:58.650Z,35.43
2018-09-18T15:23:28.592Z,35.12
2018-09-18T15:25:58.443Z,35.10
2018-09-18T15:28:28.596Z,35.29
2018-09-18T15:30:58.460Z,34.79
2018-09-18T15:33:28.525Z,36.26
2018-09-18T15:35:58.336Z,35.60
2018-09-18T15:38:28.169Z,36.58
2018-09-18T15:40:58.182Z,36.80
2018-09-18T15:43:28.230Z,36.76
2018-09-18T15:45:58.150Z,37.17
2018-09-18T15:48:28.456Z,36.60
2018-09-18T15:50:58.543Z,37.62
2018-09-18T15:53:28.688Z,37.64
2018-09-18T15:55:58.727Z,37.29
2018-09-18T15:58:28.614Z,37.18
2018-09-18T16:00:58.550Z,36.06
2018-09-18T16:03:28.914Z,36.12
2018-09-18T16:05:58.841Z,37.32
2018-09-18T16:08:28.911Z,37.06
2018-09-18T16:10:58.969Z,37.29
2018-09-18T16:13:28.909Z,37.42
2018-09-18T16:15:59.320Z,38.15
2018-09-18T16:18:29.384Z,37.76
2018-09-18T16:21:01.045Z,38.69
2018-09-18T16:23:31.471Z,38.86
2018-09-18T16:26:01.760Z,38.77
2018-09-18T16:28:32.879Z,38.47
2018-09-18T16:31:03.029Z,38.00
2018-09-18T16:33:33.465Z,38.86
2018-09-18T16:36:03.529Z,38.98
2018-09-18T16:38:34.325Z,38.34
2018-09-18T16:41:04.410Z,38.73
2018-09-18T16:43:35.578Z,38.94
2018-09-18T16:46:05.744Z,38.46
2018-09-18T16:48:35.877Z,38.54
2018-09-18T16:51:06.099Z,38.97
2018-09-18T16:53:36.077Z,39.45
2018-09-18T16:56:06.201Z,38.90
2018-09-18T16:58:36.626Z,39.67
2018-09-18T17:01:07.324Z,39.38
2018-09-18T17:03:37.438Z,40.05
2018-09-18T17:06:07.712Z,40.56
2018-09-18T17:08:37.832Z,39.93
2018-09-18T17:11:07.923Z,40.31
2018-09-18T17:13:37.980Z,40.01
2018-09-18T17:16:07.899Z,40.81
2018-09-18T17:18:37.854Z,40.06
2018-09-18T17:21:07.919Z,41.35
2018-09-18T17:23:38.026Z,41.03
2018-09-18T17:26:08.277Z,41.99
2018-09-18T17:28:38.390Z,41.29
2018-09-18T17:31:09.415Z,42.23
2018-09-18T17:33:39.488Z,41.78
2018-09-18T17:36:09.568Z,41.99
2018-09-18T17:38:39.696Z,42.77
2018-09-18T17:41:10.775Z,43.15
2018-09-18T17:43:40.968Z,43.21
2018-09-18T17:46:10.903Z,42.74
2018-09-18T17:48:41.150Z,43.26
2018-09-18T17:51:12.329Z,43.05
2018-09-18T17:53:44.092Z,43.16
2018-09-18T17:56:16.621Z,42.53
2018-09-18T17:58:47.906Z,42.36
2018-09-18T18:01:18.876Z,42.75
2018-09-18T18:03:49.565Z,43.53
2018-09-18T18:06:20.823Z,43.26
2018-09-18T18:08:50.982Z,43.56
2018-09-18T18:11:20.891Z,43.88
2018-09-18T18:13:51.125Z,44.71
2018-09-18T18:16:21.640Z,44.29
2018-09-18T18:18:51.680Z,45.47
2018-09-18T18:21:21.873Z,45.82
2018-09-18T18:23:51.816Z,45.32
2018-09-18T18:26:22.063Z,45.63
2018-09-18T18:28:52.174Z,45.79
2018-09-18T18:31:22.961Z,46.37
2018-09-18T18:33:54.720Z,46.29
2018-09-18T18:36:24.770Z,46.80
2018-09-18T18:38:54.942Z,47.61
2018-09-18T18:41:25.031Z,47.10
2018-09-18T18:43:55.276Z,48.19
2018-09-18T18:46:25.215Z,48.39
2018-09-18T18:48:55.066Z,47.72
2018-09-18T18:51:25.294Z,48.28
2018-09-18T18:53:55.603Z,48.09
2018-09-18T18:56:25.709Z,48.20
2018-09-18T18:58:55.634Z,48.84
2018-09-18T19:01:25.831Z,49.03
2018-09-18T19:03:56.312Z,49.21
2018-09-18T19:06:26.605Z,49.96
2018-09-18T19:08:56.690Z,49.40
2018-09-18T19:11:26.768Z,49.86
2018-09-18T19:13:56.793Z,49.87
2018-09-18T19:16:27.240Z,50.78
2018-09-18T19:18:57.127Z,50.51
2018-09-18T19:21:27.149Z,50.48
2018-09-18T19:23:57.144Z,51.72
2018-09-18T19:26:27.494Z,51.18
2018-09-18T19:28:57.952Z,51.30
2018-09-18T19:31:28.442Z,51.40
2018-09-18T19:34:00.762Z,51.83
2018-09-18T19:36:30.988Z,52.42
2018-09-18T19:39:01.444Z,52.02
2018-09-18T19:41:31.469Z,52.64
2018-09-18T19:44:05.410Z,52.16
2018-09-18T19:46:35.612Z,52.18
2018-09-18T19:49:05.810Z,52.90
2018-09-18T19:51:36.127Z,52.66
2018-09-18T19:54:06.376Z,53.35
2018-09-18T19:56:36.635Z,52.91
2018-09-18T19:59:06.972Z,52.83
2018-09-18T20:01:39.104Z,53.01
2018-09-18T20:04:09.278Z,53.97
2018-09-18T20:06:39.539Z,54.26
2018-09-18T20:09:11.958Z,54.12
2018-09-18T20:11:41.966Z,53.57
2018-09-18T20:14:12.100Z,54.54
2018-09-18T20:16:42.059Z,53.99
2018-09-18T20:19:12.035Z,54.79
2018-09-18T20:21:42.343Z,54.94
2018-09-18T20:24:12.276Z,55.17
2018-09-18T20:26:42.282Z,54.55
2018-09-18T20:29:12.621Z,55.34
2018-09-18T20:31:42.489Z,55.10
2018-09-18T20:34:12.434Z,55.08
2018-09-18T20:36:42.512Z,56.09
2018-09-18T20:39:12.947Z,56.41
2018-09-18T20:41:43.318Z,56.52
2018-09-18T20:44:13.387Z,56.19
2018-09-18T20:46:43.479Z,56.16
2018-09-18T20:49:13.400Z,57.07
2018-09-18T20:51:43.448Z,57.44
2018-09-18T20:54:13.402Z,56.87
2018-09-18T20:56:43.372Z,57.12
2018-09-18T20:59:13.595Z,58.13
2018-09-18T21:01:43.540Z,57.67
2018-09-18T21:04:13.945Z,57.46
2018-09-18T21:06:43.887Z,58.30
2018-09-18T21:09:14.141Z,57.64
2018-09-18T21:11:44.125Z,57.88
2018-09-18T21:14:14.145Z,57.37
2018-09-18T21:16:44.030Z,57.34
2018-09-18T21:19:14.187Z,57.53
2018-09-18T21:21:44.157Z,57.49
2018-09-18T21:24:14.597Z,57.29
2018-09-18T21:26:44.705Z,57.04
2018-09-18T21:29:15.096Z,57.19
2018-09-18T21:31:45.300Z,56.89
2018-09-18T21:34:15.606Z,56.96
2018-09-18T21:36:45.700Z,57.31
2018-09-18T21:39:16.264Z,58.09
2018-09-18T21:41:46.248Z,57.52
2018-09-18T21:44:16.422Z,58.35
2018-09-18T21:46:46.441Z,58.25
2018-09-18T21:49:16.756Z,57.58
2018-09-18T21:51:46.824Z,57.95
2018-09-18T21:54:17.239Z,58.28
2018-09-18T21:56:47.405Z,58.87
2018-09-18T21:59:17.530Z,58.35
2018-09-18T22:01:47.558Z,58.51
2018-09-18T22:04:18.410Z,59.62
2018-09-18T22:06:48.737Z,58.87
2018-09-18T22:09:19.372Z,58.90
2018-09-18T22:11:49.876Z,59.19
2018-09-18T22:14:19.996Z,59.11
2018-09-18T22:16:49.974Z,59.58
2018-09-18T22:19:19.918Z,59.73
2018-09-18T22:21:50.011Z,59.86
2018-09-18T22:24:20.171Z,59.68
2018-09-18T22:26:50.259Z,59.15
2018-09-18T22:29:20.215Z,58.97
2018-09-18T22:31:50.470Z,59.82
2018-09-18T22:34:20.946Z,59.30
2018-09-18T22:36:51.592Z,59.42
2018-09-18T22:39:21.732Z,60.01
2018-09-18T22:41:51.887Z,58.93
2018-09-18T22:44:22.177Z,58.93
2018-09-18T22:46:52.297Z,59.71
2018-09-18T22:49:23.000Z,60.34
2018-09-18T22:51:53.231Z,59.39
2018-09-18T22:54:23.597Z,59.68
2018-09-18T22:56:53.725Z,60.40
2018-09-18T22:59:24.307Z,60.56
2018-09-18T23:01:54.517Z,60.58
2018-09-18T23:04:24.574Z,59.83
2018-09-18T23:06:54.963Z,60.51
2018-09-18T23:09:25.182Z,60.70
2018-09-18T23:11:55.308Z,60.41
2018-09-18T23:14:25.435Z,60.18
2018-09-18T23:16:55.744Z,61.19
2018-09-18T23:19:25.999Z,60.47
2018-09-18T23:21:56.533Z,61.53
2018-09-18T23:24:26.860Z,61.57
2018-09-18T23:26:56.981Z,60.85
2018-09-18T23:29:27.401Z,61.26
2018-09-18T23:31:57.722Z,61.78
2018-09-18T23:34:27.973Z,61.67
2018-09-18T23:36:58.037Z,61.77
2018-09-18T23:39:28.528Z,62.15
2018-09-18T23:41:58.723Z,61.71
2018-09-18T23:44:29.581Z,62.35
2018-09-18T23:46:59.996Z,62.24
2018-09-18T23:49:30.320Z,61.70
2018-09-18T23:52:00.524Z,62.43
2018-09-18T23:54:30.758Z,61.56
2018-09-18T23:57:01.206Z,61.39
2018-09-18T23:59:31.331Z,61.82
